首页
METAR-TAF:

METAR-TAF

机场 :

科利佐沃國際機場

葉卡捷琳堡, 俄罗斯

纬度: 56-50N, 经度: 060-38E, 海拔: 237米

当前天气观测

该预报发布于17分钟前的17:00 UTC
风速4节,风向东南
温度 -6°C
湿度 79%
气压 1015 hPa
能见度10公里或以上
1500米以下无云,无积雨云

METAR: USSS 161700Z 13002MPS CAVOK M06/M09 Q1015 R26R/450338 NOSIG RMK QFE741/0988

时间: 22:17 (17:17 UTC)

预报

该预报发布于3小时和19分钟前的13:58 UTC
预报有效从16日的 15点(UTC)到 17日的 15点(UTC)
风速6节,风向,有时为23节阵风
能见度10公里或以上
多云层高于1600英尺
成为
从 16日的 16点(UTC)到 16日的 18点(UTC)
能見度: 3100
多云层高于1100英尺, 积雨云.
小阵雪
短暂存在
从 16日的 18点(UTC)到 17日的 12点(UTC)
风速12节,风向南转南东,有时为29节阵风
(小) 冻, 毛毛雨

TAF: USSS 161358Z 1615/1715 17003G12MPS 9999 BKN016 BECMG 1616/1618 3100 -SHSN BKN011CB TEMPO 1618/1712 15006G15MPS -FZDZ

超过4000个机场的气象观测和天气预报(METAR&TAF报告)。

可查询的气象台以黄色和红色小点在地图上表示。

将鼠标移到小点上方,可查看气象台名称。

然后点击查看天气观测和预报。

如需切换地图:点击带黑十字的绿色按钮放大地图;点击带横线的绿色按钮缩小地图;或者点击绿色箭头查看邻近地区的地图。


METAR-TAF: